Queen Of Cumberland — VG2029 — position and weather

sailwx.info

Track history (hours):
 
Tides and Currents Weather Stations Pressure Air Temp Water Temp Dewpoint Dewpoint Depression Visibility Wind Speed Wind Dir Waves Ship Positions

Queen Of Cumberland

Last reported at 2017-Oct-19 05:06 UTC. Time now 2017-Oct-19 09:37 UTC.
Position N 48°42' W 123°24'.

Length 96 m; draft 3.7 m.

Type: Passenger vessel. MMSI: 316001252.

Date/timePositionNaut miles runAvg speedWind from/ knotsBaromVisibWave heightAir tempDewpointWater temp
2017-Oct-19 05:06N 48°42' W 123°24'213.1
2017-Oct-19 04:57N 48°44' W 123°24'511.7
2017-Oct-19 04:30N 48°48' W 123°19'3 5.9
2017-Oct-19 04:00N 48°51' W 123°21'3 5.0
2017-Oct-19 03:30N 48°53' W 123°19'3 5.4
2017-Oct-19 02:58N 48°50' W 123°20'2 4.4
2017-Oct-19 02:30N 48°48' W 123°19'5 9.7
2017-Oct-19 01:58N 48°44' W 123°24'2 3.0
2017-Oct-19 01:18N 48°42' W 123°24'412.9
2017-Oct-19 00:58N 48°46' W 123°22'511.2
2017-Oct-19 00:30N 48°51' W 123°20'2 3.8
2017-Oct-18 23:59N 48°49' W 123°21'612.0
2017-Oct-18 23:29N 48°43' W 123°24'1 1.8
2017-Oct-18 22:48N 48°42' W 123°24'412.6
2017-Oct-18 22:28N 48°46' W 123°21'3 5.9
2017-Oct-18 22:00N 48°48' W 123°19'510.6
2017-Oct-18 21:30N 48°44' W 123°24'2 1.0
2017-Oct-18 19:43N 48°42' W 123°24'1 5.7
2017-Oct-18 19:30N 48°43' W 123°24'4 8.9
2017-Oct-18 19:00N 48°47' W 123°20'2 4.6
2017-Oct-18 18:29N 48°49' W 123°20'2 3.1
2017-Oct-18 18:00N 48°51' W 123°20'611.4
2017-Oct-18 17:30N 48°45' W 123°22'4 5.4
2017-Oct-18 16:49N 48°42' W 123°24'413.0
2017-Oct-18 16:30N 48°46' W 123°22'3 6.2
2017-Oct-18 16:00N 48°48' W 123°19'611.4
2017-Oct-18 15:30N 48°43' W 123°24'1 1.8
2017-Oct-18 14:54N 48°42' W 123°24'9 9.8
2017-Oct-18 13:59N 48°51' W 123°20'2 4.0
2017-Oct-18 13:30N 48°53' W 123°19'1 2.8
2017-Oct-18 13:00N 48°52' W 123°20'911.4
2017-Oct-18 12:12N 48°43' W 123°24'1 0.1
2017-Oct-18 05:09N 48°42' W 123°24'312.0
2017-Oct-18 04:55N 48°45' W 123°23'410.2
2017-Oct-18 04:30N 48°48' W 123°19'3 5.0
2017-Oct-18 04:00N 48°50' W 123°21'3 5.8
2017-Oct-18 03:30N 48°53' W 123°19'2 4.1
2017-Oct-18 03:00N 48°51' W 123°21'3 6.0
2017-Oct-18 02:30N 48°48' W 123°19'4 7.7
2017-Oct-18 01:59N 48°45' W 123°23'4 5.4
2017-Oct-18 01:19N 48°41' W 123°25'411.3
2017-Oct-18 01:00N 48°45' W 123°23'613.0
2017-Oct-18 00:30N 48°51' W 123°20'2 3.7
2017-Oct-17 23:57N 48°49' W 123°21'712.8
2017-Oct-17 23:24N 48°42' W 123°24'0 0.2
2017-Oct-17 22:50N 48°42' W 123°24'412.3
2017-Oct-17 22:30N 48°46' W 123°22'3 5.9
2017-Oct-17 22:00N 48°48' W 123°19'611.7
2017-Oct-17 21:29N 48°43' W 123°24'1 0.7
2017-Oct-17 19:30N 48°41' W 123°24'611.8
2017-Oct-17 18:58N 48°47' W 123°20'1 1.7
2017-Oct-17 18:30N 48°48' W 123°20'3 5.4
2017-Oct-17 18:00N 48°51' W 123°20'611.5
2017-Oct-17 17:30N 48°45' W 123°22'4 5.2
2017-Oct-17 16:48N 48°42' W 123°24'311.5
2017-Oct-17 16:30N 48°45' W 123°22'4 7.2
2017-Oct-17 15:59N 48°48' W 123°19'510.8
2017-Oct-17 15:29N 48°44' W 123°24'2 4.0
2017-Oct-17 14:56N 48°41' W 123°24'511.7
2017-Oct-17 14:30N 48°46' W 123°22'5 9.5
2017-Oct-17 14:00N 48°51' W 123°20'1 2.6
2017-Oct-17 13:30N 48°52' W 123°19'1 1.4
2017-Oct-17 13:00N 48°51' W 123°20'510.2
2017-Oct-17 12:30N 48°47' W 123°22'5 0.7
2017-Oct-17 05:05N 48°42' W 123°24'112.7
2017-Oct-17 05:00N 48°43' W 123°24'611.7
2017-Oct-17 04:30N 48°48' W 123°19'3 5.1
2017-Oct-17 04:00N 48°50' W 123°20'2 4.8
2017-Oct-17 03:30N 48°53' W 123°19'2 3.9
2017-Oct-17 03:00N 48°51' W 123°21'3 6.9
2017-Oct-17 02:30N 48°48' W 123°19'3 6.9
2017-Oct-17 02:00N 48°45' W 123°22'4 7.5
2017-Oct-17 01:27N 48°41' W 123°25'4 9.7
2017-Oct-17 01:00N 48°45' W 123°22'611.4
2017-Oct-17 00:30N 48°51' W 123°20'2 4.6
2017-Oct-17 00:00N 48°49' W 123°21'612.7
2017-Oct-16 23:30N 48°43' W 123°24'1 2.2
2017-Oct-16 22:56N 48°41' W 123°24'511.9
2017-Oct-16 22:29N 48°46' W 123°21'2 4.5
2017-Oct-16 21:58N 48°48' W 123°19'611.7
2017-Oct-16 21:27N 48°43' W 123°24'1 0.4
2017-Oct-16 19:27N 48°42' W 123°24'712.3
2017-Oct-16 18:54N 48°48' W 123°19'2 3.9
2017-Oct-16 18:30N 48°49' W 123°20'1 2.5
2017-Oct-16 18:00N 48°50' W 123°20'912.9
2017-Oct-16 17:20N 48°42' W 123°24'1 1.3
2017-Oct-16 16:51N 48°42' W 123°24'412.5
2017-Oct-16 16:30N 48°45' W 123°22'3 5.9
2017-Oct-16 15:57N 48°48' W 123°19'612.4
2017-Oct-16 15:29N 48°43' W 123°24'1 1.7
2017-Oct-16 14:54N 48°42' W 123°24'910.3
2017-Oct-16 14:00N 48°51' W 123°20'2 4.0
2017-Oct-16 13:31N 48°53' W 123°19'1 2.8
2017-Oct-16 13:00N 48°52' W 123°20'510.6
2017-Oct-16 12:30N 48°46' W 123°22'5 0.6
2017-Oct-16 04:41N 48°42' W 123°24'212.8
2017-Oct-16 04:29N 48°44' W 123°23'5 9.7
2017-Oct-16 04:00N 48°48' W 123°19'4 7.3
2017-Oct-16 03:31N 48°52' W 123°19'0 0.2
2017-Oct-16 03:00N 48°52' W 123°19'1 2.3
2017-Oct-16 02:30N 48°51' W 123°20'5 9.4
2017-Oct-16 01:59N 48°46' W 123°22'5 5.9
2017-Oct-16 01:09N 48°41' W 123°24'212.5
2017-Oct-16 00:58N 48°44' W 123°24'511.1
2017-Oct-16 00:30N 48°48' W 123°19'2 4.6
2017-Oct-15 23:59N 48°50' W 123°20'1 3.1
2017-Oct-15 23:30N 48°52' W 123°19'0 0.6
2017-Oct-15 23:00N 48°51' W 123°20'1 1.4
2017-Oct-15 22:28N 48°51' W 123°20'612.3
2017-Oct-15 21:58N 48°45' W 123°23'3 1.7
2017-Oct-15 20:09N 48°42' W 123°24'312.8
2017-Oct-15 19:54N 48°45' W 123°22'4 8.4
2017-Oct-15 19:26N 48°48' W 123°19'3 6.1
2017-Oct-15 19:00N 48°51' W 123°20'1 1.8
2017-Oct-15 18:29N 48°52' W 123°20'1 2.4
2017-Oct-15 18:00N 48°53' W 123°19'5 9.1
2017-Oct-15 17:30N 48°48' W 123°20'3 6.4
2017-Oct-15 17:00N 48°45' W 123°22'4 6.0
2017-Oct-15 16:22N 48°42' W 123°24'612.8
2017-Oct-15 15:54N 48°47' W 123°20'2 4.4
2017-Oct-15 15:30N 48°49' W 123°20'3 5.4
2017-Oct-15 15:00N 48°52' W 123°20'4 4.0
2017-Oct-15 14:00N 48°48' W 123°21'6 0.7
2017-Oct-15 04:49N 48°42' W 123°24'512.6
2017-Oct-15 04:27N 48°46' W 123°22'612.3
2017-Oct-15 04:00N 48°52' W 123°20'1 2.5
2017-Oct-15 03:30N 48°52' W 123°19'1 2.7
2017-Oct-15 02:59N 48°51' W 123°20'3 5.6
2017-Oct-15 02:30N 48°48' W 123°19'510.0
2017-Oct-15 01:58N 48°44' W 123°24'2 2.3
2017-Oct-15 01:16N 48°42' W 123°24'312.8
2017-Oct-15 01:00N 48°45' W 123°22'4 6.0
2017-Oct-15 00:25N 48°48' W 123°19'2 6.0
2017-Oct-15 00:00N 48°49' W 123°15'2 4.3
2017-Oct-14 23:30N 48°48' W 123°12'510.7
2017-Oct-14 23:00N 48°51' W 123°20'2 3.9
2017-Oct-14 22:30N 48°49' W 123°20'2 4.3
2017-Oct-14 22:00N 48°47' W 123°20'6 3.1
2017-Oct-14 20:05N 48°41' W 123°24'111.1
2017-Oct-14 19:58N 48°43' W 123°24'612.5
2017-Oct-14 19:30N 48°48' W 123°19'2 4.3
2017-Oct-14 18:59N 48°50' W 123°20'3 6.0
2017-Oct-14 18:30N 48°53' W 123°19'2 3.9
2017-Oct-14 18:01N 48°51' W 123°20'2 3.8
2017-Oct-14 17:31N 48°49' W 123°20'3 5.2
2017-Oct-14 16:59N 48°46' W 123°21'5 6.6
2017-Oct-14 16:11N 48°41' W 123°25'511.0
2017-Oct-14 15:43N 48°46' W 123°21'211.3
2017-Oct-14 15:31N 48°48' W 123°19'0 0.6
2017-Oct-14 15:01N 48°48' W 123°20'3 5.7
2017-Oct-14 14:30N 48°51' W 123°20'2 3.8
2017-Oct-14 14:00N 48°53' W 123°19'4 7.0
2017-Oct-14 13:30N 48°49' W 123°21'712.1
2017-Oct-14 12:56N 48°43' W 123°24'2 1.9
2017-Oct-14 12:06N 48°41' W 123°25'0 0.0
2017-Oct-14 05:10N 48°41' W 123°24'212.6
2017-Oct-14 04:58N 48°44' W 123°23'511.1
2017-Oct-14 04:31N 48°48' W 123°19'610.3
2017-Oct-14 03:58N 48°43' W 123°24'1 2.2
2017-Oct-14 03:20N 48°45' W 123°23'412.4
2017-Oct-14 03:00N 48°48' W 123°19'4 7.9
2017-Oct-14 02:29N 48°45' W 123°23'4 6.2
2017-Oct-14 01:55N 48°41' W 123°25'611.8
2017-Oct-14 01:23N 48°47' W 123°21'4 8.6
2017-Oct-14 00:57N 48°51' W 123°20'10 4.0
2017-Oct-13 22:31N 48°41' W 123°24'011.1
2017-Oct-13 22:30N 48°42' W 123°25'612.9
2017-Oct-13 22:00N 48°47' W 123°21'1 1.4
2017-Oct-13 21:30N 48°47' W 123°20'612.1
2017-Oct-13 21:00N 48°42' W 123°24'0 0.1
2017-Oct-13 19:24N 48°42' W 123°24'513.0
2017-Oct-13 19:01N 48°46' W 123°21'3 5.3
2017-Oct-13 18:31N 48°49' W 123°20'2 3.4
2017-Oct-13 18:00N 48°51' W 123°20'611.9
2017-Oct-13 17:29N 48°45' W 123°23'4 5.9
2017-Oct-13 16:51N 48°41' W 123°25'511.2
2017-Oct-13 16:26N 48°46' W 123°22'3 6.5
2017-Oct-13 15:58N 48°48' W 123°19'510.5
2017-Oct-13 15:27N 48°44' W 123°24'2 4.1
2017-Oct-13 14:54N 48°41' W 123°25'511.8
2017-Oct-13 14:30N 48°46' W 123°22'510.5
2017-Oct-13 14:00N 48°51' W 123°20'1 2.7
2017-Oct-13 13:31N 48°52' W 123°19'1 2.4
2017-Oct-13 13:00N 48°52' W 123°20'611.5
2017-Oct-13 12:28N 48°45' W 123°22'4 0.6
2017-Oct-13 05:13N 48°42' W 123°24'412.6
2017-Oct-13 04:55N 48°45' W 123°22'4 9.0
2017-Oct-13 04:31N 48°48' W 123°19'4 7.9
2017-Oct-13 04:01N 48°52' W 123°19'0 1.0
2017-Oct-13 03:31N 48°52' W 123°18'3 6.3
2017-Oct-13 03:00N 48°49' W 123°20'2 3.1
2017-Oct-13 02:30N 48°48' W 123°19'5 9.3
2017-Oct-13 02:01N 48°44' W 123°23'2 3.2
2017-Oct-13 01:18N 48°42' W 123°24'412.6
2017-Oct-13 00:59N 48°46' W 123°22'510.8
2017-Oct-13 00:30N 48°51' W 123°20'2 4.6
2017-Oct-13 00:00N 48°48' W 123°20'611.1
2017-Oct-12 23:29N 48°43' W 123°24'2 3.0
2017-Oct-12 22:52N 48°41' W 123°24'512.5
2017-Oct-12 22:30N 48°46' W 123°21'3 5.6
2017-Oct-12 21:59N 48°48' W 123°19'611.9
2017-Oct-12 21:28N 48°43' W 123°24'1 0.7
2017-Oct-12 19:25N 48°41' W 123°24'512.5
2017-Oct-12 18:59N 48°46' W 123°21'2 4.7
2017-Oct-12 18:30N 48°48' W 123°20'2 4.7
2017-Oct-12 18:00N 48°51' W 123°20'712.4
2017-Oct-12 17:26N 48°44' W 123°23'2 3.9
2017-Oct-12 16:52N 48°42' W 123°24'512.5
2017-Oct-12 16:30N 48°46' W 123°21'2 4.8
2017-Oct-12 16:00N 48°48' W 123°19'712.5
2017-Oct-12 15:27N 48°42' W 123°24'0 0.0
2017-Oct-12 15:00N 48°42' W 123°24'712.4
2017-Oct-12 14:28N 48°48' W 123°21'3 5.0
2017-Oct-12 13:58N 48°51' W 123°20'2 3.5
2017-Oct-12 13:30N 48°52' W 123°18'1 1.4
2017-Oct-12 13:00N 48°51' W 123°19'510.6
2017-Oct-12 12:30N 48°46' W 123°22'5 1.1
2017-Oct-12 07:41N 48°41' W 123°25'0 0.2
2017-Oct-12 07:30N 48°41' W 123°25'0 0.0
2017-Oct-12 07:00N 48°41' W 123°25'0 0.0
2017-Oct-12 06:29N 48°41' W 123°25'0 0.0
2017-Oct-12 05:56N 48°41' W 123°25'1 0.9
2017-Oct-12 05:14N 48°42' W 123°24'312.8
2017-Oct-12 04:59N 48°45' W 123°22'4 7.5
2017-Oct-12 04:30N 48°48' W 123°19'4 9.1
2017-Oct-12 04:01N 48°52' W 123°18'0 0.2
2017-Oct-12 03:28N 48°52' W 123°18'2 4.8
2017-Oct-12 03:00N 48°51' W 123°20'3 5.5
2017-Oct-12 02:30N 48°48' W 123°19'610.9
2017-Oct-12 01:57N 48°43' W 123°24'1 2.5
2017-Oct-12 01:23N 48°41' W 123°24'512.0
2017-Oct-12 00:58N 48°46' W 123°22'5 9.9
2017-Oct-12 00:29N 48°51' W 123°20'2 4.5
2017-Oct-11 23:57N 48°48' W 123°20'612.1
2017-Oct-11 23:29N 48°43' W 123°24'1 2.1
2017-Oct-11 22:53N 48°42' W 123°24'613.1
2017-Oct-11 22:27N 48°47' W 123°20'1 1.6
2017-Oct-11 21:58N 48°48' W 123°19'511.8
2017-Oct-11 21:30N 48°43' W 123°24'2 1.1
2017-Oct-11 19:45N 48°45' W 123°23'313.2
2017-Oct-11 19:30N 48°47' W 123°20'1 2.6
2017-Oct-11 19:00N 48°49' W 123°20'2 4.2
2017-Oct-11 18:30N 48°51' W 123°20'5 9.3
2017-Oct-11 18:00N 48°46' W 123°21'5 5.6
2017-Oct-11 17:10N 48°42' W 123°24'412.9
2017-Oct-11 16:52N 48°46' W 123°22'3 0.2
2017-Oct-11 00:00N 48°48' W 123°20'610.7
2017-Oct-10 23:27N 48°43' W 123°24'1 1.3
2017-Oct-10 22:51N 48°42' W 123°24'512.8
2017-Oct-10 22:29N 48°46' W 123°21'2 3.7
2017-Oct-10 21:59N 48°48' W 123°19'612.4
2017-Oct-10 21:30N 48°43' W 123°24'1 0.7
2017-Oct-10 19:40N 48°41' W 123°24'211.8
2017-Oct-10 19:29N 48°44' W 123°24'511.4
2017-Oct-10 19:00N 48°48' W 123°19'3 5.3
2017-Oct-10 18:30N 48°51' W 123°20'3 5.9
2017-Oct-10 18:00N 48°48' W 123°21'611.4
2017-Oct-10 17:28N 48°42' W 123°24'1 2.2
2017-Oct-10 16:55N 48°43' W 123°24'613.3
2017-Oct-10 16:30N 48°48' W 123°19'1 2.4
2017-Oct-10 16:00N 48°47' W 123°20'6 5.6
2017-Oct-10 14:59N 48°42' W 123°24'9 9.5
2017-Oct-10 14:00N 48°51' W 123°20'1 2.8
2017-Oct-10 13:30N 48°52' W 123°19'0 1.0
2017-Oct-10 13:01N 48°52' W 123°19'611.2
2017-Oct-10 12:29N 48°46' W 123°22'4 0.6
2017-Oct-10 04:45N 48°42' W 123°24'413.2
2017-Oct-10 04:28N 48°45' W 123°22'3 7.0
2017-Oct-10 04:00N 48°48' W 123°19'4 6.9
2017-Oct-10 03:30N 48°52' W 123°19'0 1.0
2017-Oct-10 03:00N 48°51' W 123°20'1 1.7
2017-Oct-10 02:30N 48°51' W 123°20'3 5.4
2017-Oct-10 02:00N 48°48' W 123°19'610.3
2017-Oct-10 01:24N 48°43' W 123°24'1 1.6
2017-Oct-10 00:47N 48°42' W 123°24'311.4
2017-Oct-10 00:29N 48°45' W 123°23'4 8.0
2017-Oct-10 00:00N 48°48' W 123°19'4 7.4
2017-Oct-09 23:30N 48°52' W 123°20'1 2.9
2017-Oct-09 23:00N 48°53' W 123°19'2 3.8
2017-Oct-09 22:30N 48°51' W 123°20'3 5.4
2017-Oct-09 22:00N 48°48' W 123°19'4 7.5
2017-Oct-09 21:30N 48°45' W 123°22'3 1.8
2017-Oct-09 19:40N 48°42' W 123°24'213.3
2017-Oct-09 19:30N 48°44' W 123°23'5 9.8
2017-Oct-09 19:00N 48°48' W 123°19'3 5.4
2017-Oct-09 18:30N 48°51' W 123°20'3 5.0
2017-Oct-09 18:00N 48°48' W 123°21'712.5
2017-Oct-09 17:29N 48°42' W 123°24'1 1.3
2017-Oct-09 16:55N 48°41' W 123°24'512.4
2017-Oct-09 16:30N 48°46' W 123°21'3 5.1
2017-Oct-09 16:00N 48°48' W 123°19'510.9
2017-Oct-09 15:30N 48°44' W 123°24'2 2.5
2017-Oct-09 14:50N 48°42' W 123°24'513.5
2017-Oct-09 14:29N 48°46' W 123°22'510.0
2017-Oct-09 14:00N 48°51' W 123°20'2 3.9
2017-Oct-09 13:31N 48°53' W 123°19'1 2.1
2017-Oct-09 13:01N 48°52' W 123°19'510.7
2017-Oct-09 12:30N 48°46' W 123°22'5 5.2
2017-Oct-09 11:28N 48°41' W 123°25'  
Track history (hours):
 
Tides and Currents Weather Stations Pressure Air Temp Water Temp Dewpoint Dewpoint Depression Visibility Wind Speed Wind Dir Waves Ship Positions

Queen Of Cumberland

Last reported at 2017-Oct-19 05:06 UTC. Time now 2017-Oct-19 09:37 UTC.
Position N 48°42' W 123°24'.

Length 96 m; draft 3.7 m.

Type: Passenger vessel. MMSI: 316001252.

Date/timePositionNaut miles runAvg speedWind from/ knotsBaromVisibWave heightAir tempDewpointWater temp
2017-Oct-19 05:06N 48°42' W 123°24'213.1
2017-Oct-19 04:57N 48°44' W 123°24'511.7
2017-Oct-19 04:30N 48°48' W 123°19'3 5.9
2017-Oct-19 04:00N 48°51' W 123°21'3 5.0
2017-Oct-19 03:30N 48°53' W 123°19'3 5.4
2017-Oct-19 02:58N 48°50' W 123°20'2 4.4
2017-Oct-19 02:30N 48°48' W 123°19'5 9.7
2017-Oct-19 01:58N 48°44' W 123°24'2 3.0
2017-Oct-19 01:18N 48°42' W 123°24'412.9
2017-Oct-19 00:58N 48°46' W 123°22'511.2
2017-Oct-19 00:30N 48°51' W 123°20'2 3.8
2017-Oct-18 23:59N 48°49' W 123°21'612.0
2017-Oct-18 23:29N 48°43' W 123°24'1 1.8
2017-Oct-18 22:48N 48°42' W 123°24'412.6
2017-Oct-18 22:28N 48°46' W 123°21'3 5.9
2017-Oct-18 22:00N 48°48' W 123°19'510.6
2017-Oct-18 21:30N 48°44' W 123°24'2 1.0
2017-Oct-18 19:43N 48°42' W 123°24'1 5.7
2017-Oct-18 19:30N 48°43' W 123°24'4 8.9
2017-Oct-18 19:00N 48°47' W 123°20'2 4.6
2017-Oct-18 18:29N 48°49' W 123°20'2 3.1
2017-Oct-18 18:00N 48°51' W 123°20'611.4
2017-Oct-18 17:30N 48°45' W 123°22'4 5.4
2017-Oct-18 16:49N 48°42' W 123°24'413.0
2017-Oct-18 16:30N 48°46' W 123°22'3 6.2
2017-Oct-18 16:00N 48°48' W 123°19'611.4
2017-Oct-18 15:30N 48°43' W 123°24'1 1.8
2017-Oct-18 14:54N 48°42' W 123°24'9 9.8
2017-Oct-18 13:59N 48°51' W 123°20'2 4.0
2017-Oct-18 13:30N 48°53' W 123°19'1 2.8
2017-Oct-18 13:00N 48°52' W 123°20'911.4
2017-Oct-18 12:12N 48°43' W 123°24'1 0.1
2017-Oct-18 05:09N 48°42' W 123°24'312.0
2017-Oct-18 04:55N 48°45' W 123°23'410.2
2017-Oct-18 04:30N 48°48' W 123°19'3 5.0
2017-Oct-18 04:00N 48°50' W 123°21'3 5.8
2017-Oct-18 03:30N 48°53' W 123°19'2 4.1
2017-Oct-18 03:00N 48°51' W 123°21'3 6.0
2017-Oct-18 02:30N 48°48' W 123°19'4 7.7
2017-Oct-18 01:59N 48°45' W 123°23'4 5.4
2017-Oct-18 01:19N 48°41' W 123°25'411.3
2017-Oct-18 01:00N 48°45' W 123°23'613.0
2017-Oct-18 00:30N 48°51' W 123°20'2 3.7
2017-Oct-17 23:57N 48°49' W 123°21'712.8
2017-Oct-17 23:24N 48°42' W 123°24'0 0.2
2017-Oct-17 22:50N 48°42' W 123°24'412.3
2017-Oct-17 22:30N 48°46' W 123°22'3 5.9
2017-Oct-17 22:00N 48°48' W 123°19'611.7
2017-Oct-17 21:29N 48°43' W 123°24'1 0.7
2017-Oct-17 19:30N 48°41' W 123°24'611.8
2017-Oct-17 18:58N 48°47' W 123°20'1 1.7
2017-Oct-17 18:30N 48°48' W 123°20'3 5.4
2017-Oct-17 18:00N 48°51' W 123°20'611.5
2017-Oct-17 17:30N 48°45' W 123°22'4 5.2
2017-Oct-17 16:48N 48°42' W 123°24'311.5
2017-Oct-17 16:30N 48°45' W 123°22'4 7.2
2017-Oct-17 15:59N 48°48' W 123°19'510.8
2017-Oct-17 15:29N 48°44' W 123°24'2 4.0
2017-Oct-17 14:56N 48°41' W 123°24'511.7
2017-Oct-17 14:30N 48°46' W 123°22'5 9.5
2017-Oct-17 14:00N 48°51' W 123°20'1 2.6
2017-Oct-17 13:30N 48°52' W 123°19'1 1.4
2017-Oct-17 13:00N 48°51' W 123°20'510.2
2017-Oct-17 12:30N 48°47' W 123°22'5 0.7
2017-Oct-17 05:05N 48°42' W 123°24'112.7
2017-Oct-17 05:00N 48°43' W 123°24'611.7
2017-Oct-17 04:30N 48°48' W 123°19'3 5.1
2017-Oct-17 04:00N 48°50' W 123°20'2 4.8
2017-Oct-17 03:30N 48°53' W 123°19'2 3.9
2017-Oct-17 03:00N 48°51' W 123°21'3 6.9
2017-Oct-17 02:30N 48°48' W 123°19'3 6.9
2017-Oct-17 02:00N 48°45' W 123°22'4 7.5
2017-Oct-17 01:27N 48°41' W 123°25'4 9.7
2017-Oct-17 01:00N 48°45' W 123°22'611.4
2017-Oct-17 00:30N 48°51' W 123°20'2 4.6
2017-Oct-17 00:00N 48°49' W 123°21'612.7
2017-Oct-16 23:30N 48°43' W 123°24'1 2.2
2017-Oct-16 22:56N 48°41' W 123°24'511.9
2017-Oct-16 22:29N 48°46' W 123°21'2 4.5
2017-Oct-16 21:58N 48°48' W 123°19'611.7
2017-Oct-16 21:27N 48°43' W 123°24'1 0.4
2017-Oct-16 19:27N 48°42' W 123°24'712.3
2017-Oct-16 18:54N 48°48' W 123°19'2 3.9
2017-Oct-16 18:30N 48°49' W 123°20'1 2.5
2017-Oct-16 18:00N 48°50' W 123°20'912.9
2017-Oct-16 17:20N 48°42' W 123°24'1 1.3
2017-Oct-16 16:51N 48°42' W 123°24'412.5
2017-Oct-16 16:30N 48°45' W 123°22'3 5.9
2017-Oct-16 15:57N 48°48' W 123°19'612.4
2017-Oct-16 15:29N 48°43' W 123°24'1 1.7
2017-Oct-16 14:54N 48°42' W 123°24'910.3
2017-Oct-16 14:00N 48°51' W 123°20'2 4.0
2017-Oct-16 13:31N 48°53' W 123°19'1 2.8
2017-Oct-16 13:00N 48°52' W 123°20'510.6
2017-Oct-16 12:30N 48°46' W 123°22'5 0.6
2017-Oct-16 04:41N 48°42' W 123°24'212.8
2017-Oct-16 04:29N 48°44' W 123°23'5 9.7
2017-Oct-16 04:00N 48°48' W 123°19'4 7.3
2017-Oct-16 03:31N 48°52' W 123°19'0 0.2
2017-Oct-16 03:00N 48°52' W 123°19'1 2.3
2017-Oct-16 02:30N 48°51' W 123°20'5 9.4
2017-Oct-16 01:59N 48°46' W 123°22'5 5.9
2017-Oct-16 01:09N 48°41' W 123°24'212.5
2017-Oct-16 00:58N 48°44' W 123°24'511.1
2017-Oct-16 00:30N 48°48' W 123°19'2 4.6
2017-Oct-15 23:59N 48°50' W 123°20'1 3.1
2017-Oct-15 23:30N 48°52' W 123°19'0 0.6
2017-Oct-15 23:00N 48°51' W 123°20'1 1.4
2017-Oct-15 22:28N 48°51' W 123°20'612.3
2017-Oct-15 21:58N 48°45' W 123°23'3 1.7
2017-Oct-15 20:09N 48°42' W 123°24'312.8
2017-Oct-15 19:54N 48°45' W 123°22'4 8.4
2017-Oct-15 19:26N 48°48' W 123°19'3 6.1
2017-Oct-15 19:00N 48°51' W 123°20'1 1.8
2017-Oct-15 18:29N 48°52' W 123°20'1 2.4
2017-Oct-15 18:00N 48°53' W 123°19'5 9.1
2017-Oct-15 17:30N 48°48' W 123°20'3 6.4
2017-Oct-15 17:00N 48°45' W 123°22'4 6.0
2017-Oct-15 16:22N 48°42' W 123°24'612.8
2017-Oct-15 15:54N 48°47' W 123°20'2 4.4
2017-Oct-15 15:30N 48°49' W 123°20'3 5.4
2017-Oct-15 15:00N 48°52' W 123°20'4 4.0
2017-Oct-15 14:00N 48°48' W 123°21'6 0.7
2017-Oct-15 04:49N 48°42' W 123°24'512.6
2017-Oct-15 04:27N 48°46' W 123°22'612.3
2017-Oct-15 04:00N 48°52' W 123°20'1 2.5
2017-Oct-15 03:30N 48°52' W 123°19'1 2.7
2017-Oct-15 02:59N 48°51' W 123°20'3 5.6
2017-Oct-15 02:30N 48°48' W 123°19'510.0
2017-Oct-15 01:58N 48°44' W 123°24'2 2.3
2017-Oct-15 01:16N 48°42' W 123°24'312.8
2017-Oct-15 01:00N 48°45' W 123°22'4 6.0
2017-Oct-15 00:25N 48°48' W 123°19'2 6.0
2017-Oct-15 00:00N 48°49' W 123°15'2 4.3
2017-Oct-14 23:30N 48°48' W 123°12'510.7
2017-Oct-14 23:00N 48°51' W 123°20'2 3.9
2017-Oct-14 22:30N 48°49' W 123°20'2 4.3
2017-Oct-14 22:00N 48°47' W 123°20'6 3.1
2017-Oct-14 20:05N 48°41' W 123°24'111.1
2017-Oct-14 19:58N 48°43' W 123°24'612.5
2017-Oct-14 19:30N 48°48' W 123°19'2 4.3
2017-Oct-14 18:59N 48°50' W 123°20'3 6.0
2017-Oct-14 18:30N 48°53' W 123°19'2 3.9
2017-Oct-14 18:01N 48°51' W 123°20'2 3.8
2017-Oct-14 17:31N 48°49' W 123°20'3 5.2
2017-Oct-14 16:59N 48°46' W 123°21'5 6.6
2017-Oct-14 16:11N 48°41' W 123°25'511.0
2017-Oct-14 15:43N 48°46' W 123°21'211.3
2017-Oct-14 15:31N 48°48' W 123°19'0 0.6
2017-Oct-14 15:01N 48°48' W 123°20'3 5.7
2017-Oct-14 14:30N 48°51' W 123°20'2 3.8
2017-Oct-14 14:00N 48°53' W 123°19'4 7.0
2017-Oct-14 13:30N 48°49' W 123°21'712.1
2017-Oct-14 12:56N 48°43' W 123°24'2 1.9
2017-Oct-14 12:06N 48°41' W 123°25'0 0.0
2017-Oct-14 05:10N 48°41' W 123°24'212.6
2017-Oct-14 04:58N 48°44' W 123°23'511.1
2017-Oct-14 04:31N 48°48' W 123°19'610.3
2017-Oct-14 03:58N 48°43' W 123°24'1 2.2
2017-Oct-14 03:20N 48°45' W 123°23'412.4
2017-Oct-14 03:00N 48°48' W 123°19'4 7.9
2017-Oct-14 02:29N 48°45' W 123°23'4 6.2
2017-Oct-14 01:55N 48°41' W 123°25'611.8
2017-Oct-14 01:23N 48°47' W 123°21'4 8.6
2017-Oct-14 00:57N 48°51' W 123°20'10 4.0
2017-Oct-13 22:31N 48°41' W 123°24'011.1
2017-Oct-13 22:30N 48°42' W 123°25'612.9
2017-Oct-13 22:00N 48°47' W 123°21'1 1.4
2017-Oct-13 21:30N 48°47' W 123°20'612.1
2017-Oct-13 21:00N 48°42' W 123°24'0 0.1
2017-Oct-13 19:24N 48°42' W 123°24'513.0
2017-Oct-13 19:01N 48°46' W 123°21'3 5.3
2017-Oct-13 18:31N 48°49' W 123°20'2 3.4
2017-Oct-13 18:00N 48°51' W 123°20'611.9
2017-Oct-13 17:29N 48°45' W 123°23'4 5.9
2017-Oct-13 16:51N 48°41' W 123°25'511.2
2017-Oct-13 16:26N 48°46' W 123°22'3 6.5
2017-Oct-13 15:58N 48°48' W 123°19'510.5
2017-Oct-13 15:27N 48°44' W 123°24'2 4.1
2017-Oct-13 14:54N 48°41' W 123°25'511.8
2017-Oct-13 14:30N 48°46' W 123°22'510.5
2017-Oct-13 14:00N 48°51' W 123°20'1 2.7
2017-Oct-13 13:31N 48°52' W 123°19'1 2.4
2017-Oct-13 13:00N 48°52' W 123°20'611.5
2017-Oct-13 12:28N 48°45' W 123°22'4 0.6
2017-Oct-13 05:13N 48°42' W 123°24'412.6
2017-Oct-13 04:55N 48°45' W 123°22'4 9.0
2017-Oct-13 04:31N 48°48' W 123°19'4 7.9
2017-Oct-13 04:01N 48°52' W 123°19'0 1.0
2017-Oct-13 03:31N 48°52' W 123°18'3 6.3
2017-Oct-13 03:00N 48°49' W 123°20'2 3.1
2017-Oct-13 02:30N 48°48' W 123°19'5 9.3
2017-Oct-13 02:01N 48°44' W 123°23'2 3.2
2017-Oct-13 01:18N 48°42' W 123°24'412.6
2017-Oct-13 00:59N 48°46' W 123°22'510.8
2017-Oct-13 00:30N 48°51' W 123°20'2 4.6
2017-Oct-13 00:00N 48°48' W 123°20'611.1
2017-Oct-12 23:29N 48°43' W 123°24'2 3.0
2017-Oct-12 22:52N 48°41' W 123°24'512.5
2017-Oct-12 22:30N 48°46' W 123°21'3 5.6
2017-Oct-12 21:59N 48°48' W 123°19'611.9
2017-Oct-12 21:28N 48°43' W 123°24'1 0.7
2017-Oct-12 19:25N 48°41' W 123°24'512.5
2017-Oct-12 18:59N 48°46' W 123°21'2 4.7
2017-Oct-12 18:30N 48°48' W 123°20'2 4.7
2017-Oct-12 18:00N 48°51' W 123°20'712.4
2017-Oct-12 17:26N 48°44' W 123°23'2 3.9
2017-Oct-12 16:52N 48°42' W 123°24'512.5
2017-Oct-12 16:30N 48°46' W 123°21'2 4.8
2017-Oct-12 16:00N 48°48' W 123°19'712.5
2017-Oct-12 15:27N 48°42' W 123°24'0 0.0
2017-Oct-12 15:00N 48°42' W 123°24'712.4
2017-Oct-12 14:28N 48°48' W 123°21'3 5.0
2017-Oct-12 13:58N 48°51' W 123°20'2 3.5
2017-Oct-12 13:30N 48°52' W 123°18'1 1.4
2017-Oct-12 13:00N 48°51' W 123°19'510.6
2017-Oct-12 12:30N 48°46' W 123°22'5 1.1
2017-Oct-12 07:41N 48°41' W 123°25'0 0.2
2017-Oct-12 07:30N 48°41' W 123°25'0 0.0
2017-Oct-12 07:00N 48°41' W 123°25'0 0.0
2017-Oct-12 06:29N 48°41' W 123°25'0 0.0
2017-Oct-12 05:56N 48°41' W 123°25'1 0.9
2017-Oct-12 05:14N 48°42' W 123°24'312.8
2017-Oct-12 04:59N 48°45' W 123°22'4 7.5
2017-Oct-12 04:30N 48°48' W 123°19'4 9.1
2017-Oct-12 04:01N 48°52' W 123°18'0 0.2
2017-Oct-12 03:28N 48°52' W 123°18'2 4.8
2017-Oct-12 03:00N 48°51' W 123°20'3 5.5
2017-Oct-12 02:30N 48°48' W 123°19'610.9
2017-Oct-12 01:57N 48°43' W 123°24'1 2.5
2017-Oct-12 01:23N 48°41' W 123°24'512.0
2017-Oct-12 00:58N 48°46' W 123°22'5 9.9
2017-Oct-12 00:29N 48°51' W 123°20'2 4.5
2017-Oct-11 23:57N 48°48' W 123°20'612.1
2017-Oct-11 23:29N 48°43' W 123°24'1 2.1
2017-Oct-11 22:53N 48°42' W 123°24'613.1
2017-Oct-11 22:27N 48°47' W 123°20'1 1.6
2017-Oct-11 21:58N 48°48' W 123°19'511.8
2017-Oct-11 21:30N 48°43' W 123°24'2 1.1
2017-Oct-11 19:45N 48°45' W 123°23'313.2
2017-Oct-11 19:30N 48°47' W 123°20'1 2.6
2017-Oct-11 19:00N 48°49' W 123°20'2 4.2
2017-Oct-11 18:30N 48°51' W 123°20'5 9.3
2017-Oct-11 18:00N 48°46' W 123°21'5 5.6
2017-Oct-11 17:10N 48°42' W 123°24'412.9
2017-Oct-11 16:52N 48°46' W 123°22'3 0.2
2017-Oct-11 00:00N 48°48' W 123°20'610.7
2017-Oct-10 23:27N 48°43' W 123°24'1 1.3
2017-Oct-10 22:51N 48°42' W 123°24'512.8
2017-Oct-10 22:29N 48°46' W 123°21'2 3.7
2017-Oct-10 21:59N 48°48' W 123°19'612.4
2017-Oct-10 21:30N 48°43' W 123°24'1 0.7
2017-Oct-10 19:40N 48°41' W 123°24'211.8
2017-Oct-10 19:29N 48°44' W 123°24'511.4
2017-Oct-10 19:00N 48°48' W 123°19'3 5.3
2017-Oct-10 18:30N 48°51' W 123°20'3 5.9
2017-Oct-10 18:00N 48°48' W 123°21'611.4
2017-Oct-10 17:28N 48°42' W 123°24'1 2.2
2017-Oct-10 16:55N 48°43' W 123°24'613.3
2017-Oct-10 16:30N 48°48' W 123°19'1 2.4
2017-Oct-10 16:00N 48°47' W 123°20'6 5.6
2017-Oct-10 14:59N 48°42' W 123°24'9 9.5
2017-Oct-10 14:00N 48°51' W 123°20'1 2.8
2017-Oct-10 13:30N 48°52' W 123°19'0 1.0
2017-Oct-10 13:01N 48°52' W 123°19'611.2
2017-Oct-10 12:29N 48°46' W 123°22'4 0.6
2017-Oct-10 04:45N 48°42' W 123°24'413.2
2017-Oct-10 04:28N 48°45' W 123°22'3 7.0
2017-Oct-10 04:00N 48°48' W 123°19'4 6.9
2017-Oct-10 03:30N 48°52' W 123°19'0 1.0
2017-Oct-10 03:00N 48°51' W 123°20'1 1.7
2017-Oct-10 02:30N 48°51' W 123°20'3 5.4
2017-Oct-10 02:00N 48°48' W 123°19'610.3
2017-Oct-10 01:24N 48°43' W 123°24'1 1.6
2017-Oct-10 00:47N 48°42' W 123°24'311.4
2017-Oct-10 00:29N 48°45' W 123°23'4 8.0
2017-Oct-10 00:00N 48°48' W 123°19'4 7.4
2017-Oct-09 23:30N 48°52' W 123°20'1 2.9
2017-Oct-09 23:00N 48°53' W 123°19'2 3.8
2017-Oct-09 22:30N 48°51' W 123°20'3 5.4
2017-Oct-09 22:00N 48°48' W 123°19'4 7.5
2017-Oct-09 21:30N 48°45' W 123°22'3 1.8
2017-Oct-09 19:40N 48°42' W 123°24'213.3
2017-Oct-09 19:30N 48°44' W 123°23'5 9.8
2017-Oct-09 19:00N 48°48' W 123°19'3 5.4
2017-Oct-09 18:30N 48°51' W 123°20'3 5.0
2017-Oct-09 18:00N 48°48' W 123°21'712.5
2017-Oct-09 17:29N 48°42' W 123°24'1 1.3
2017-Oct-09 16:55N 48°41' W 123°24'512.4
2017-Oct-09 16:30N 48°46' W 123°21'3 5.1
2017-Oct-09 16:00N 48°48' W 123°19'510.9
2017-Oct-09 15:30N 48°44' W 123°24'2 2.5
2017-Oct-09 14:50N 48°42' W 123°24'513.5
2017-Oct-09 14:29N 48°46' W 123°22'510.0
2017-Oct-09 14:00N 48°51' W 123°20'2 3.9
2017-Oct-09 13:31N 48°53' W 123°19'1 2.1
2017-Oct-09 13:01N 48°52' W 123°19'510.7
2017-Oct-09 12:30N 48°46' W 123°22'5 5.2
2017-Oct-09 11:28N 48°41' W 123°25'  

Dump ship's entire track history